createdAt,value
2017-09-01T00:00:12.825Z,84.78
2017-09-01T00:02:39.241Z,84.77
2017-09-01T00:05:05.628Z,85.37
2017-09-01T00:07:32.221Z,85.13
2017-09-01T00:09:58.901Z,85.49
2017-09-01T00:12:25.539Z,85.46
2017-09-01T00:14:52.173Z,85.38
2017-09-01T00:17:18.790Z,85.41
2017-09-01T00:19:45.251Z,85.69
2017-09-01T00:22:11.847Z,85.92
2017-09-01T00:24:38.525Z,86.28
2017-09-01T00:27:05.008Z,86.56
2017-09-01T00:29:31.596Z,87.35
2017-09-01T00:31:58.237Z,87.64
2017-09-01T00:34:24.663Z,87.84
2017-09-01T00:36:51.304Z,87.44
2017-09-01T00:39:17.796Z,87.71
2017-09-01T00:41:44.237Z,87.82
2017-09-01T00:44:11.023Z,87.32
2017-09-01T00:46:37.447Z,87.11
2017-09-01T00:49:04.059Z,87.39
2017-09-01T00:51:30.579Z,87.31
2017-09-01T00:53:57.020Z,87.14
2017-09-01T00:58:56.167Z,85.73
2017-09-01T01:01:22.500Z,85.68
2017-09-01T01:03:48.980Z,85.67
2017-09-01T01:06:15.526Z,85.92
2017-09-01T01:08:41.971Z,86.79
2017-09-01T01:11:08.333Z,86.26
2017-09-01T01:13:34.970Z,86.42
2017-09-01T01:16:01.595Z,86.80
2017-09-01T01:18:27.907Z,86.65
2017-09-01T01:20:54.478Z,86.93
2017-09-01T01:23:20.782Z,86.94
2017-09-01T01:25:47.082Z,86.85
2017-09-01T01:28:13.441Z,87.03
2017-09-01T01:30:39.844Z,87.01
2017-09-01T01:33:06.286Z,87.27
2017-09-01T01:35:32.863Z,86.82
2017-09-01T01:37:59.370Z,86.98
2017-09-01T01:40:25.793Z,87.38
2017-09-01T01:42:52.144Z,87.85
2017-09-01T01:45:18.439Z,88.44
2017-09-01T01:47:44.742Z,88.29
2017-09-01T01:50:11.101Z,88.68
2017-09-01T01:52:37.393Z,88.74
2017-09-01T01:55:03.673Z,88.10
2017-09-01T01:57:30.035Z,87.93
2017-09-01T01:59:56.593Z,87.13
2017-09-01T02:02:23.193Z,87.57
2017-09-01T02:04:49.663Z,87.97
2017-09-01T02:07:16.270Z,88.69
2017-09-01T02:09:42.734Z,88.29
2017-09-01T02:12:09.167Z,87.97
2017-09-01T02:14:35.605Z,87.55
2017-09-01T02:17:02.220Z,87.38
2017-09-01T02:19:28.672Z,87.37
2017-09-01T02:21:55.271Z,87.87
2017-09-01T02:24:21.919Z,87.03
2017-09-01T02:26:48.438Z,87.45
2017-09-01T02:29:14.880Z,88.05
2017-09-01T02:31:41.323Z,88.38
2017-09-01T02:34:07.896Z,87.99
2017-09-01T02:36:34.382Z,88.09
2017-09-01T02:39:00.823Z,88.56
2017-09-01T02:41:27.601Z,88.14
2017-09-01T02:43:54.107Z,87.97
2017-09-01T02:46:20.620Z,87.72
2017-09-01T02:48:47.264Z,87.97
2017-09-01T02:51:13.947Z,87.89
2017-09-01T02:53:40.382Z,87.61
2017-09-01T02:56:07.017Z,87.72
2017-09-01T02:58:33.632Z,87.88
2017-09-01T03:01:00.087Z,87.56
2017-09-01T03:03:26.665Z,88.02
2017-09-01T03:05:53.162Z,87.67
2017-09-01T03:08:19.651Z,87.24
2017-09-01T03:10:46.025Z,87.40
2017-09-01T03:13:12.317Z,88.45
2017-09-01T03:15:38.627Z,88.76
2017-09-01T03:18:04.992Z,88.56
2017-09-01T03:20:31.323Z,87.68
2017-09-01T03:22:57.631Z,87.93
2017-09-01T03:25:23.995Z,88.93
2017-09-01T03:27:50.651Z,88.94
2017-09-01T03:30:17.086Z,88.80
2017-09-01T03:32:43.723Z,89.00
2017-09-01T03:35:10.032Z,88.07
2017-09-01T03:37:36.349Z,87.80
2017-09-01T03:40:02.728Z,87.62
2017-09-01T03:42:29.040Z,87.35
2017-09-01T03:44:55.337Z,87.89
2017-09-01T03:47:21.724Z,87.74
2017-09-01T03:49:48.044Z,87.38
2017-09-01T03:52:14.360Z,86.57
2017-09-01T03:54:40.709Z,86.94
2017-09-01T03:57:07.017Z,86.30
2017-09-01T03:59:33.317Z,85.40
2017-09-01T04:01:59.738Z,82.34
2017-09-01T04:04:26.064Z,78.89
2017-09-01T04:06:52.370Z,75.44
2017-09-01T04:09:18.947Z,72.97
2017-09-01T04:11:45.632Z,70.18
2017-09-01T04:14:12.107Z,68.28
2017-09-01T04:16:38.672Z,66.32
2017-09-01T04:19:05.341Z,64.52
2017-09-01T04:21:31.957Z,62.28
2017-09-01T04:23:58.573Z,60.12
2017-09-01T04:26:25.255Z,58.49
2017-09-01T04:28:51.901Z,56.81
2017-09-01T04:31:18.254Z,55.79
2017-09-01T04:33:44.941Z,53.14
2017-09-01T04:36:11.605Z,51.96
2017-09-01T04:38:38.239Z,50.86
2017-09-01T04:41:04.572Z,48.57
2017-09-01T04:43:31.056Z,46.62
2017-09-01T04:45:57.602Z,45.40
2017-09-01T04:48:24.118Z,43.90
2017-09-01T04:50:50.510Z,43.65
2017-09-01T04:53:17.149Z,43.93
2017-09-01T04:55:43.768Z,41.68
2017-09-01T04:58:10.224Z,40.55
2017-09-01T05:00:36.668Z,39.71
2017-09-01T05:03:03.270Z,39.58
2017-09-01T05:05:29.931Z,39.26
2017-09-01T05:07:56.567Z,38.84
2017-09-01T05:10:23.194Z,37.76
2017-09-01T05:12:49.627Z,35.64
2017-09-01T05:15:16.230Z,35.22
2017-09-01T05:17:42.706Z,36.62
2017-09-01T05:20:09.322Z,35.65
2017-09-01T05:22:35.933Z,35.43
2017-09-01T05:25:02.624Z,36.62
2017-09-01T05:27:29.264Z,36.34
2017-09-01T05:29:55.697Z,34.28
2017-09-01T05:32:22.329Z,34.25
2017-09-01T05:34:48.942Z,34.49
2017-09-01T05:37:15.560Z,34.74
2017-09-01T05:39:42.104Z,33.45
2017-09-01T05:42:08.592Z,32.60
2017-09-01T05:44:35.189Z,31.50
2017-09-01T05:47:01.876Z,31.39
2017-09-01T05:49:28.187Z,32.02
2017-09-01T05:51:54.929Z,31.75
2017-09-01T05:54:21.369Z,32.79
2017-09-01T05:56:47.973Z,31.97
2017-09-01T05:59:14.437Z,31.23
2017-09-01T06:01:40.741Z,29.67
2017-09-01T06:04:07.063Z,30.29
2017-09-01T06:06:33.434Z,31.93
2017-09-01T06:08:59.754Z,31.24
2017-09-01T06:11:26.076Z,31.40
2017-09-01T06:13:52.461Z,30.90
2017-09-01T06:16:18.774Z,29.83
2017-09-01T06:18:45.085Z,30.28
2017-09-01T06:21:11.504Z,29.58
2017-09-01T06:23:37.799Z,29.85
2017-09-01T06:26:04.118Z,30.31
2017-09-01T06:28:30.501Z,29.32
2017-09-01T06:30:56.990Z,28.10
2017-09-01T06:33:23.657Z,27.88
2017-09-01T06:35:50.202Z,27.85
2017-09-01T06:38:16.715Z,26.86
2017-09-01T06:40:43.285Z,26.14
2017-09-01T06:43:09.974Z,25.13
2017-09-01T06:45:36.461Z,24.22
2017-09-01T06:48:03.080Z,23.86
2017-09-01T06:50:29.702Z,24.47
2017-09-01T06:52:56.221Z,25.11
2017-09-01T06:55:22.983Z,24.59
2017-09-01T06:57:49.605Z,26.18
2017-09-01T07:00:16.148Z,25.36
2017-09-01T07:02:42.926Z,25.34
2017-09-01T07:05:09.769Z,24.29
2017-09-01T07:07:36.202Z,24.27
2017-09-01T07:10:02.838Z,25.30
2017-09-01T07:12:29.658Z,24.82
2017-09-01T07:14:56.274Z,26.07
2017-09-01T07:17:22.964Z,26.08
2017-09-01T07:19:49.688Z,24.85
2017-09-01T07:22:16.442Z,25.16
2017-09-01T07:24:42.947Z,24.57
2017-09-01T07:27:09.515Z,23.02
2017-09-01T07:29:36.152Z,23.18
2017-09-01T07:32:02.747Z,23.45
2017-09-01T07:34:29.225Z,22.00
2017-09-01T07:36:55.862Z,21.67
2017-09-01T07:39:22.499Z,22.43
2017-09-01T07:41:49.317Z,21.90
2017-09-01T07:44:15.837Z,21.82
2017-09-01T07:46:42.215Z,21.05
2017-09-01T07:49:08.656Z,20.19
2017-09-01T07:51:35.034Z,20.37
2017-09-01T07:54:01.408Z,19.46
2017-09-01T07:56:27.837Z,20.18
2017-09-01T07:58:54.221Z,20.00
2017-09-01T08:01:20.604Z,19.89
2017-09-01T08:03:47.063Z,19.92
2017-09-01T08:06:13.616Z,20.62
2017-09-01T08:08:40.164Z,19.48
2017-09-01T08:11:06.900Z,18.47
2017-09-01T08:13:33.445Z,16.84
2017-09-01T08:16:00.211Z,16.73
2017-09-01T08:18:27.055Z,18.04
2017-09-01T08:20:53.711Z,17.98
2017-09-01T08:23:20.348Z,17.12
2017-09-01T08:25:47.033Z,15.88
2017-09-01T08:28:13.824Z,15.20
2017-09-01T08:30:40.259Z,15.42
2017-09-01T08:33:06.859Z,15.44
2017-09-01T08:35:33.236Z,15.86
2017-09-01T08:37:59.612Z,16.75
2017-09-01T08:40:26.046Z,15.54
2017-09-01T08:42:52.428Z,14.46
2017-09-01T08:45:18.812Z,13.64
2017-09-01T08:47:45.240Z,13.40
2017-09-01T08:50:11.620Z,15.43
2017-09-01T08:52:38.018Z,13.49
2017-09-01T08:55:04.469Z,13.82
2017-09-01T08:57:30.851Z,12.74
2017-09-01T08:59:57.218Z,13.99
2017-09-01T09:02:23.656Z,13.14
2017-09-01T09:04:50.025Z,13.82
2017-09-01T09:07:16.372Z,13.66
2017-09-01T09:09:42.781Z,15.41
2017-09-01T09:12:09.141Z,14.93
2017-09-01T09:14:35.495Z,15.83
2017-09-01T09:17:01.936Z,13.20
2017-09-01T09:19:28.305Z,14.42
2017-09-01T09:21:54.692Z,13.80
2017-09-01T09:24:21.135Z,13.75
2017-09-01T09:26:47.512Z,14.02
2017-09-01T09:29:13.909Z,14.01
2017-09-01T09:31:40.337Z,13.36
2017-09-01T09:34:06.747Z,13.57
2017-09-01T09:36:33.141Z,12.98
2017-09-01T09:38:59.594Z,13.93
2017-09-01T09:41:25.968Z,12.36
2017-09-01T09:43:52.337Z,14.05
2017-09-01T09:46:18.760Z,12.08
2017-09-01T09:48:45.135Z,13.17
2017-09-01T09:51:11.500Z,12.37
2017-09-01T09:53:37.916Z,11.47
2017-09-01T09:56:04.284Z,12.55
2017-09-01T09:58:30.658Z,11.03
2017-09-01T10:00:57.097Z,12.65
2017-09-01T10:03:23.464Z,11.66
2017-09-01T10:05:49.833Z,12.05
2017-09-01T10:08:16.264Z,13.62
2017-09-01T10:10:42.639Z,13.59
2017-09-01T10:13:09.027Z,14.34
2017-09-01T10:15:35.459Z,13.46
2017-09-01T10:18:01.848Z,12.53
2017-09-01T10:20:28.244Z,14.86
2017-09-01T10:22:54.759Z,12.79
2017-09-01T10:25:21.104Z,10.82
2017-09-01T10:27:47.472Z,11.13
2017-09-01T10:30:13.894Z,12.35
2017-09-01T10:32:40.251Z,11.62
2017-09-01T10:35:06.630Z,12.02
2017-09-01T10:37:33.078Z,11.21
2017-09-01T10:39:59.456Z,11.51
2017-09-01T10:42:25.839Z,11.31
2017-09-01T10:44:52.276Z,12.40
2017-09-01T10:47:18.646Z,11.97
2017-09-01T10:49:45.012Z,12.42
2017-09-01T10:52:11.460Z,12.62
2017-09-01T10:54:37.844Z,11.76
2017-09-01T10:57:04.221Z,12.03
2017-09-01T10:59:30.649Z,11.34
2017-09-01T11:01:57.031Z,11.44
2017-09-01T11:04:23.393Z,11.21
2017-09-01T11:06:49.831Z,11.43
2017-09-01T11:09:16.221Z,10.93
2017-09-01T11:11:42.597Z,11.22
2017-09-01T11:14:09.040Z,11.20
2017-09-01T11:16:35.417Z,11.09
2017-09-01T11:19:01.769Z,9.98
2017-09-01T11:21:28.190Z,11.55
2017-09-01T11:23:54.567Z,11.62
2017-09-01T11:26:20.934Z,11.47
2017-09-01T11:28:47.345Z,12.47
2017-09-01T11:31:13.709Z,12.31
2017-09-01T11:33:40.058Z,12.01
2017-09-01T11:36:06.469Z,11.53
2017-09-01T11:38:32.829Z,11.71
2017-09-01T11:40:59.201Z,11.63
2017-09-01T11:43:25.629Z,11.67
2017-09-01T11:45:51.991Z,12.00
2017-09-01T11:48:18.344Z,11.37
2017-09-01T11:50:44.818Z,10.98
2017-09-01T11:53:11.359Z,10.82
2017-09-01T11:55:37.725Z,12.03
2017-09-01T11:58:04.834Z,12.13
2017-09-01T12:00:31.227Z,10.98
2017-09-01T12:02:57.616Z,12.08
2017-09-01T12:05:24.058Z,10.88
2017-09-01T12:07:50.422Z,10.43
2017-09-01T12:10:16.786Z,11.96
2017-09-01T12:12:43.225Z,12.33
2017-09-01T12:15:09.584Z,12.47
2017-09-01T12:17:35.963Z,11.57
2017-09-01T12:20:02.390Z,11.88
2017-09-01T12:22:28.766Z,12.31
2017-09-01T12:24:55.155Z,10.12
2017-09-01T12:27:21.602Z,11.43
2017-09-01T12:29:47.967Z,12.39
2017-09-01T12:32:14.337Z,11.24
2017-09-01T12:34:40.785Z,10.71
2017-09-01T12:37:07.149Z,12.78
2017-09-01T12:39:33.538Z,12.47
2017-09-01T12:41:59.989Z,12.22
2017-09-01T12:44:26.664Z,12.94
2017-09-01T12:46:53.281Z,12.51
2017-09-01T12:49:19.906Z,11.43
2017-09-01T12:51:46.446Z,11.76
2017-09-01T12:54:13.009Z,10.26
2017-09-01T12:56:39.854Z,9.97
2017-09-01T12:59:06.277Z,10.69
2017-09-01T13:01:32.783Z,11.78
2017-09-01T13:03:59.405Z,12.24
2017-09-01T13:06:26.167Z,12.44
2017-09-01T13:08:52.843Z,11.38
2017-09-01T13:11:19.656Z,12.14
2017-09-01T13:13:46.117Z,12.18
2017-09-01T13:16:12.690Z,13.51
2017-09-01T13:18:39.331Z,12.84
2017-09-01T13:21:05.879Z,13.55
2017-09-01T13:23:32.645Z,15.13
2017-09-01T13:25:59.262Z,14.23
2017-09-01T13:28:25.808Z,14.33
2017-09-01T13:30:52.571Z,15.63
2017-09-01T13:33:19.191Z,17.04
2017-09-01T13:35:45.655Z,17.72
2017-09-01T13:38:12.013Z,17.99
2017-09-01T13:40:38.487Z,18.77
2017-09-01T13:43:05.012Z,14.74
2017-09-01T13:45:31.799Z,14.19
2017-09-01T13:47:58.636Z,14.99
2017-09-01T13:50:25.236Z,15.87
2017-09-01T13:52:51.917Z,14.41
2017-09-01T13:55:18.401Z,14.72
2017-09-01T13:57:45.192Z,14.63
2017-09-01T14:00:11.625Z,15.48
2017-09-01T14:02:38.128Z,16.25
2017-09-01T14:05:05.108Z,15.74
2017-09-01T14:07:31.608Z,16.23
2017-09-01T14:09:58.182Z,17.46
2017-09-01T14:12:24.766Z,16.59
2017-09-01T14:14:51.455Z,14.97
2017-09-01T14:17:18.176Z,16.80
2017-09-01T14:19:44.572Z,16.36
2017-09-01T14:22:11.167Z,16.54
2017-09-01T14:24:37.978Z,15.59
2017-09-01T14:27:04.498Z,17.38
2017-09-01T14:29:31.076Z,17.62
2017-09-01T14:31:57.909Z,16.61
2017-09-01T14:34:24.354Z,17.76
2017-09-01T14:36:50.967Z,19.35
2017-09-01T14:39:17.587Z,19.90
2017-09-01T14:41:44.058Z,20.99
2017-09-01T14:44:10.544Z,20.29
2017-09-01T14:46:37.190Z,20.94
2017-09-01T14:49:03.631Z,20.44
2017-09-01T14:51:30.413Z,20.76
2017-09-01T14:53:57.049Z,21.41
2017-09-01T14:56:23.533Z,19.39
2017-09-01T14:58:49.976Z,19.75
2017-09-01T15:01:16.348Z,19.12
2017-09-01T15:03:42.982Z,19.19
2017-09-01T15:06:09.268Z,19.97
2017-09-01T15:08:35.790Z,20.03
2017-09-01T15:11:02.237Z,19.52
2017-09-01T15:13:28.928Z,20.43
2017-09-01T15:15:55.265Z,21.06
2017-09-01T15:18:21.617Z,20.60
2017-09-01T15:20:47.914Z,21.54
2017-09-01T15:23:14.442Z,21.49
2017-09-01T15:25:40.888Z,20.74
2017-09-01T15:28:07.317Z,22.18
2017-09-01T15:30:33.901Z,21.52
2017-09-01T15:33:00.442Z,21.54
2017-09-01T15:35:27.032Z,22.94
2017-09-01T15:37:53.428Z,22.56
2017-09-01T15:40:20.095Z,22.13
2017-09-01T15:42:46.739Z,22.67
2017-09-01T15:45:13.377Z,22.96
2017-09-01T15:47:39.651Z,22.71
2017-09-01T15:50:06.190Z,23.30
2017-09-01T15:52:32.732Z,23.74
2017-09-01T15:54:59.178Z,24.37
2017-09-01T15:57:25.694Z,23.84
2017-09-01T15:59:52.237Z,25.61
2017-09-01T16:02:18.677Z,26.85
2017-09-01T16:04:45.091Z,28.00
2017-09-01T16:07:11.437Z,30.18
2017-09-01T16:09:37.879Z,29.96
2017-09-01T16:12:04.547Z,30.95
2017-09-01T16:14:30.979Z,33.11
2017-09-01T16:16:57.602Z,34.12
2017-09-01T16:19:24.264Z,35.04
2017-09-01T16:21:50.662Z,35.67
2017-09-01T16:24:17.331Z,35.52
2017-09-01T16:26:43.631Z,36.16
2017-09-01T16:29:10.201Z,36.08
2017-09-01T16:31:36.811Z,34.63
2017-09-01T16:34:03.470Z,35.65
2017-09-01T16:36:30.090Z,36.54
2017-09-01T16:38:56.546Z,39.11
2017-09-01T16:41:23.029Z,40.71
2017-09-01T16:43:49.468Z,39.44
2017-09-01T16:46:15.757Z,40.87
2017-09-01T16:48:42.482Z,41.87
2017-09-01T16:51:08.781Z,41.54
2017-09-01T16:53:35.346Z,44.19
2017-09-01T16:56:02.242Z,44.93
2017-09-01T16:58:28.829Z,45.06
2017-09-01T17:00:55.268Z,45.78
2017-09-01T17:03:21.907Z,46.68
2017-09-01T17:05:48.527Z,47.49
2017-09-01T17:08:14.955Z,50.21
2017-09-01T17:10:41.615Z,47.39
2017-09-01T17:13:08.224Z,48.61
2017-09-01T17:15:34.894Z,50.34
2017-09-01T17:18:01.322Z,48.73
2017-09-01T17:20:27.750Z,50.40
2017-09-01T17:22:54.056Z,51.39
2017-09-01T17:25:20.658Z,53.61
2017-09-01T17:27:47.067Z,54.21
2017-09-01T17:30:13.478Z,54.02
2017-09-01T17:32:39.919Z,55.25
2017-09-01T17:35:06.534Z,55.70
2017-09-01T17:37:32.975Z,55.27
2017-09-01T17:39:59.495Z,55.78
2017-09-01T17:42:26.011Z,56.73
2017-09-01T17:44:52.317Z,56.33
2017-09-01T17:47:18.928Z,54.40
2017-09-01T17:49:45.538Z,55.63
2017-09-01T17:52:12.209Z,61.45
2017-09-01T17:54:38.842Z,58.72
2017-09-01T17:57:05.277Z,61.96
2017-09-01T17:59:31.905Z,55.45
2017-09-01T18:01:58.346Z,61.52
2017-09-01T18:04:24.643Z,63.14
2017-09-01T18:06:51.007Z,63.01
2017-09-01T18:09:17.421Z,60.19
2017-09-01T18:11:44.065Z,61.33
2017-09-01T18:14:10.509Z,62.58
2017-09-01T18:16:36.859Z,59.83
2017-09-01T18:19:03.342Z,60.72
2017-09-01T18:21:30.016Z,62.15
2017-09-01T18:23:56.598Z,59.60
2017-09-01T18:26:23.268Z,57.46
2017-09-01T18:28:49.937Z,57.18
2017-09-01T18:31:16.577Z,54.45
2017-09-01T18:33:43.196Z,55.41
2017-09-01T18:36:09.848Z,54.43
2017-09-01T18:38:36.269Z,54.22
2017-09-01T18:41:02.894Z,54.98
2017-09-01T18:43:29.540Z,55.50
2017-09-01T18:45:55.891Z,59.90
2017-09-01T18:48:22.227Z,57.36
2017-09-01T18:50:48.839Z,59.94
2017-09-01T18:53:15.291Z,61.07
2017-09-01T18:55:41.773Z,63.14
2017-09-01T18:58:08.219Z,61.63
2017-09-01T19:00:34.556Z,64.37
2017-09-01T19:03:00.925Z,64.50
2017-09-01T19:05:27.466Z,65.20
2017-09-01T19:07:53.793Z,65.15
2017-09-01T19:10:20.209Z,64.45
2017-09-01T19:12:46.846Z,65.70
2017-09-01T19:15:13.439Z,64.54
2017-09-01T19:17:40.135Z,65.75
2017-09-01T19:20:06.768Z,67.61
2017-09-01T19:22:33.211Z,68.22
2017-09-01T19:24:59.747Z,69.18
2017-09-01T19:27:26.227Z,69.21
2017-09-01T19:29:53.019Z,68.32
2017-09-01T19:32:19.632Z,70.09
2017-09-01T19:34:46.276Z,70.83
2017-09-01T19:37:12.693Z,70.72
2017-09-01T19:39:39.108Z,72.12
2017-09-01T19:42:05.590Z,71.27
2017-09-01T19:44:32.026Z,72.48
2017-09-01T19:46:58.453Z,71.55
2017-09-01T19:49:24.899Z,72.36
2017-09-01T19:51:51.332Z,73.02
2017-09-01T19:54:17.763Z,73.96
2017-09-01T19:56:44.187Z,72.47
2017-09-01T19:59:10.834Z,72.04
2017-09-01T20:01:37.459Z,73.91
2017-09-01T20:04:03.746Z,73.97
2017-09-01T20:06:30.125Z,74.18
2017-09-01T20:08:56.564Z,73.51
2017-09-01T20:11:22.993Z,74.21
2017-09-01T20:13:49.436Z,75.34
2017-09-01T20:16:15.768Z,74.65
2017-09-01T20:18:42.060Z,75.01
2017-09-01T20:21:08.737Z,75.41
2017-09-01T20:23:35.218Z,76.15
2017-09-01T20:26:01.587Z,77.29
2017-09-01T20:28:28.037Z,77.16
2017-09-01T20:30:54.519Z,77.29
2017-09-01T20:33:20.881Z,74.79
2017-09-01T20:35:47.539Z,75.60
2017-09-01T20:38:13.969Z,76.29
2017-09-01T20:40:40.606Z,77.04
2017-09-01T20:43:07.043Z,78.04
2017-09-01T20:45:33.348Z,78.53
2017-09-01T20:47:59.885Z,75.63
2017-09-01T20:50:26.340Z,75.24
2017-09-01T20:52:52.983Z,77.22
2017-09-01T20:55:19.406Z,78.36
2017-09-01T20:57:45.842Z,77.49
2017-09-01T21:00:12.281Z,78.21
2017-09-01T21:02:38.767Z,78.87
2017-09-01T21:05:05.557Z,79.28
2017-09-01T21:07:32.207Z,78.83
2017-09-01T21:09:58.521Z,79.45
2017-09-01T21:12:25.109Z,79.04
2017-09-01T21:14:51.553Z,79.57
2017-09-01T21:17:18.068Z,79.11
2017-09-01T21:19:44.413Z,79.16
2017-09-01T21:22:10.851Z,79.39
2017-09-01T21:24:37.141Z,79.66
2017-09-01T21:27:03.646Z,80.19
2017-09-01T21:29:30.090Z,80.82
2017-09-01T21:31:56.381Z,80.33
2017-09-01T21:34:22.757Z,78.94
2017-09-01T21:36:49.379Z,80.12
2017-09-01T21:39:15.872Z,80.57
2017-09-01T21:41:42.407Z,79.95
2017-09-01T21:44:09.079Z,79.68
2017-09-01T21:46:35.433Z,80.58
2017-09-01T21:49:01.817Z,81.47
2017-09-01T21:51:28.505Z,81.34
2017-09-01T21:53:55.139Z,81.08
2017-09-01T21:56:21.775Z,81.21
2017-09-01T21:58:48.407Z,81.83
2017-09-01T22:01:14.853Z,81.84
2017-09-01T22:03:41.441Z,81.62
2017-09-01T22:06:07.767Z,81.15
2017-09-01T22:08:34.348Z,82.12
2017-09-01T22:11:00.938Z,82.11
2017-09-01T22:13:27.635Z,81.82
2017-09-01T22:15:54.127Z,82.21
2017-09-01T22:18:20.911Z,82.80
2017-09-01T22:20:47.533Z,82.84
2017-09-01T22:23:14.053Z,82.08
2017-09-01T22:25:40.825Z,81.61
2017-09-01T22:28:07.436Z,82.33
2017-09-01T22:30:34.101Z,82.73
2017-09-01T22:33:00.532Z,82.10
2017-09-01T22:35:27.171Z,82.43
2017-09-01T22:37:53.778Z,82.95
2017-09-01T22:40:20.396Z,82.96
2017-09-01T22:42:47.085Z,83.53
2017-09-01T22:45:13.526Z,83.76
2017-09-01T22:47:39.982Z,83.66
2017-09-01T22:50:06.564Z,84.33
2017-09-01T22:52:33.226Z,83.77
2017-09-01T22:54:59.824Z,83.65
2017-09-01T22:57:26.501Z,83.65
2017-09-01T22:59:53.140Z,83.97
2017-09-01T23:02:19.780Z,84.06
2017-09-01T23:04:46.389Z,84.30
2017-09-01T23:07:13.053Z,83.89
2017-09-01T23:09:39.447Z,83.06
2017-09-01T23:12:06.116Z,83.47
2017-09-01T23:14:32.610Z,83.80
2017-09-01T23:16:58.991Z,84.18
2017-09-01T23:19:25.633Z,84.42
2017-09-01T23:21:52.258Z,84.83
2017-09-01T23:24:18.753Z,84.92
2017-09-01T23:26:45.194Z,85.14
2017-09-01T23:29:11.488Z,85.36
2017-09-01T23:31:37.992Z,85.60
2017-09-01T23:34:04.639Z,85.70
2017-09-01T23:36:31.073Z,85.99
2017-09-01T23:38:57.677Z,86.09
2017-09-01T23:41:24.351Z,86.16
2017-09-01T23:43:50.777Z,85.95
2017-09-01T23:46:17.085Z,86.10
2017-09-01T23:48:43.590Z,86.39
2017-09-01T23:51:10.285Z,86.22
2017-09-01T23:53:36.874Z,86.26
2017-09-01T23:56:03.542Z,86.52
2017-09-01T23:58:30.184Z,86.45
